Whiteville, Arkansas
Current Conditions -  °F | °C
As of 11:53 AM on Wednesday 28 Jan 2015 (Local Time) from KBPK Reporting Station
Clear Clear  
Wind Chill: 55°   Ceiling: Unl
Heat Index: 55°   Visibility: 10mi
Dew Point: 32°   Wind: 15mph
Humidity: 42%   Direction: 160°SSE
Pressure: 30.13"   Gusts: 21mph
Location:  36.3299°N, 92.4805°W
Report Text: KBPK 281753Z AUTO 16013G18KT 10SM CLR 13/00 A3013 RMK AO2 SLP205 T01280000 10128 20011 58019
Loading
Personal Weather Stations






























Interactive Weather Map New forecast layout! Learn more

10-Day Weather Forecast

Advertisements
Track Severe Weather on mobile